Time;durP1;ratioP1;P1;durP2;ratioP2;P2;SDS_P1;SDS_P2;PMS_P1;PMS_P2;Temp;Humidity;BMP_temperature;BMP_pressure;BME280_temperature;BME280_humidity;BME280_pressure;Samples;Min_cycle;Max_cycle;Signal;HPM_P1;HPM_P2
2020/12/29 00:01:42;;;;;;;12.60;4.85;;;2.00;86.80;;;;;;4977768;28;20485;-90
2020/12/29 00:04:16;;;;;;;10.43;4.53;;;2.10;86.60;;;;;;4992485;28;20407;-90
2020/12/29 00:06:48;;;;;;;13.60;5.20;;;2.10;86.30;;;;;;4976666;28;20483;-89
2020/12/29 00:09:16;;;;;;;11.70;5.13;;;2.10;86.10;;;;;;4978283;28;20030;-89
2020/12/29 00:11:43;;;;;;;12.88;6.10;;;2.00;85.90;;;;;;4980296;28;20019;-96
2020/12/29 00:14:10;;;;;;;13.13;6.13;;;2.00;85.80;;;;;;4979400;28;20035;-96
2020/12/29 00:16:36;;;;;;;13.52;6.40;;;2.00;85.70;;;;;;4982189;28;20019;-95
2020/12/29 00:19:02;;;;;;;12.63;6.18;;;2.00;85.90;;;;;;4994775;28;20041;-95
2020/12/29 00:21:27;;;;;;;12.55;5.93;;;2.00;85.90;;;;;;4988671;28;20035;-95
2020/12/29 00:23:53;;;;;;;14.40;6.45;;;2.00;85.90;;;;;;4980977;28;20041;-94
2020/12/29 00:26:19;;;;;;;12.15;5.65;;;2.00;85.70;;;;;;4962741;28;20501;-95
2020/12/29 00:28:46;;;;;;;11.93;5.20;;;2.00;85.80;;;;;;4979282;28;20145;-95
2020/12/29 00:31:18;;;;;;;12.00;5.75;;;2.00;85.80;;;;;;4964374;28;20062;-95
2020/12/29 00:33:44;;;;;;;12.43;5.28;;;2.00;85.50;;;;;;4980676;28;20044;-94
2020/12/29 00:36:10;;;;;;;13.00;5.18;;;1.90;86.00;;;;;;4989274;28;20525;-90
2020/12/29 00:38:36;;;;;;;12.15;5.30;;;1.90;85.20;;;;;;4986865;28;20078;-91
2020/12/29 00:41:06;;;;;;;12.18;5.40;;;1.90;85.40;;;;;;4961438;28;20364;-91
2020/12/29 00:43:32;;;;;;;14.60;6.32;;;1.90;85.50;;;;;;4976682;28;20078;-90
2020/12/29 00:45:57;;;;;;;11.93;5.38;;;1.80;85.50;;;;;;4979364;28;20375;-90
2020/12/29 00:48:23;;;;;;;11.40;5.45;;;1.80;86.10;;;;;;4983850;28;20031;-90
2020/12/29 00:50:48;;;;;;;12.05;5.05;;;1.80;85.40;;;;;;4960637;28;20248;-90
2020/12/29 00:53:14;;;;;;;12.85;5.22;;;1.80;85.30;;;;;;4996808;28;20086;-90
2020/12/29 00:55:40;;;;;;;14.32;4.97;;;1.70;85.10;;;;;;4961981;28;20039;-91
2020/12/29 00:58:06;;;;;;;9.75;4.53;;;1.70;85.10;;;;;;4952640;28;20045;-89
2020/12/29 01:00:31;;;;;;;10.25;4.65;;;1.70;85.20;;;;;;4977046;28;20022;-89
2020/12/29 01:02:57;;;;;;;11.52;5.03;;;1.70;85.40;;;;;;4959679;28;20022;-88
2020/12/29 01:05:22;;;;;;;12.10;5.10;;;1.70;85.70;;;;;;5009306;28;20031;-89
2020/12/29 01:07:48;;;;;;;11.45;4.65;;;1.70;85.90;;;;;;4991548;28;20027;-86
2020/12/29 01:10:14;;;;;;;11.95;4.40;;;1.80;86.00;;;;;;4981384;28;20030;-89
2020/12/29 01:12:39;;;;;;;9.35;4.25;;;1.90;86.00;;;;;;4976178;28;20121;-88
2020/12/29 01:15:06;;;;;;;10.40;4.05;;;1.90;86.20;;;;;;4951467;28;20494;-88
2020/12/29 01:17:31;;;;;;;9.45;3.95;;;1.90;86.00;;;;;;4974532;28;20094;-87
2020/12/29 01:19:57;;;;;;;9.88;4.15;;;2.00;86.10;;;;;;4959043;28;20451;-88
2020/12/29 01:22:23;;;;;;;10.73;3.75;;;2.00;86.20;;;;;;4984406;28;20062;-89
2020/12/29 01:24:48;;;;;;;8.45;3.90;;;2.10;86.20;;;;;;4977826;28;20027;-90
2020/12/29 01:27:14;;;;;;;9.55;3.38;;;2.10;86.20;;;;;;4986859;28;20023;-90
2020/12/29 01:29:39;;;;;;;9.02;3.83;;;2.10;86.30;;;;;;4971878;28;20042;-88
2020/12/29 01:32:05;;;;;;;9.57;4.15;;;2.20;86.30;;;;;;4947022;28;20113;-93
2020/12/29 01:34:30;;;;;;;9.80;3.78;;;2.30;86.30;;;;;;4960405;28;20049;-92
2020/12/29 01:36:57;;;;;;;8.38;3.95;;;2.20;86.20;;;;;;4974551;28;20400;-93
2020/12/29 01:39:23;;;;;;;9.20;3.88;;;2.20;86.10;;;;;;4981925;28;20557;-93
2020/12/29 01:41:48;;;;;;;10.13;4.18;;;2.30;86.30;;;;;;4974430;28;20031;-93
2020/12/29 01:44:16;;;;;;;7.68;3.28;;;2.30;86.10;;;;;;4946784;28;20081;-93
2020/12/29 01:46:45;;;;;;;10.38;4.18;;;2.30;86.20;;;;;;4983154;28;20027;-93
2020/12/29 01:49:11;;;;;;;9.98;4.15;;;2.30;86.30;;;;;;4955238;28;20436;-93
2020/12/29 01:51:38;;;;;;;8.10;3.22;;;2.30;86.20;;;;;;4986089;28;20044;-92
2020/12/29 01:54:05;;;;;;;8.27;3.63;;;2.30;86.10;;;;;;4978091;28;20035;-92
2020/12/29 01:56:36;;;;;;;10.65;4.00;;;2.40;86.10;;;;;;4974114;28;20534;-93
2020/12/29 01:59:09;;;;;;;9.98;4.28;;;2.40;86.20;;;;;;4973939;28;20042;-90
2020/12/29 02:01:43;;;;;;;10.85;4.22;;;2.40;86.30;;;;;;4954781;28;20062;-92
2020/12/29 02:04:10;;;;;;;12.83;4.50;;;2.50;86.50;;;;;;4975689;28;20499;-91
2020/12/29 02:06:38;;;;;;;8.82;3.92;;;2.50;86.60;;;;;;4975085;28;20267;-92
2020/12/29 02:09:05;;;;;;;8.65;3.95;;;2.60;86.60;;;;;;4976768;28;20023;-90
2020/12/29 02:11:32;;;;;;;9.10;3.75;;;2.60;86.50;;;;;;4991603;28;20106;-88
2020/12/29 02:13:57;;;;;;;10.30;3.78;;;2.60;86.60;;;;;;4979283;28;20031;-90
2020/12/29 02:16:24;;;;;;;11.00;4.38;;;2.70;86.60;;;;;;4974342;28;20110;-90
2020/12/29 02:18:50;;;;;;;9.02;3.72;;;2.70;86.50;;;;;;4992068;28;20043;-91
2020/12/29 02:21:16;;;;;;;8.80;3.92;;;2.70;86.40;;;;;;4974530;28;20085;-90
2020/12/29 02:23:42;;;;;;;8.18;3.50;;;2.70;86.50;;;;;;4972982;28;20034;-90
2020/12/29 02:26:07;;;;;;;9.18;3.55;;;2.80;86.40;;;;;;4998903;28;20434;-90
2020/12/29 02:28:33;;;;;;;9.20;3.20;;;2.80;86.40;;;;;;4976799;28;20027;-90
2020/12/29 02:30:59;;;;;;;9.05;3.63;;;2.80;86.60;;;;;;4980165;28;20023;-93
2020/12/29 02:33:24;;;;;;;7.53;3.13;;;2.90;86.60;;;;;;4974620;28;20034;-92
2020/12/29 02:35:51;;;;;;;6.80;3.15;;;2.90;86.40;;;;;;4975976;28;20125;-93
2020/12/29 02:38:24;;;;;;;8.15;3.15;;;2.80;86.20;;;;;;4959747;28;20456;-93
2020/12/29 02:40:51;;;;;;;7.88;3.25;;;2.80;86.00;;;;;;4976592;28;20027;-93
2020/12/29 02:43:18;;;;;;;8.13;3.13;;;2.70;85.70;;;;;;4978996;28;20065;-93
2020/12/29 02:45:44;;;;;;;7.55;3.22;;;2.70;85.90;;;;;;4981240;28;20041;-93
2020/12/29 02:48:10;;;;;;;8.48;3.35;;;2.70;86.30;;;;;;4959344;28;20039;-93
2020/12/29 02:50:35;;;;;;;9.43;3.50;;;2.70;86.40;;;;;;4975253;28;20023;-93
2020/12/29 02:53:02;;;;;;;5.07;2.20;;;2.80;86.60;;;;;;4974881;28;20090;-92
2020/12/29 02:55:28;;;;;;;8.95;3.10;;;2.80;86.70;;;;;;4959679;28;20022;-93
2020/12/29 02:57:54;;;;;;;6.57;2.88;;;2.90;87.00;;;;;;4974333;28;20147;-93
2020/12/29 03:00:23;;;;;;;5.53;2.60;;;3.00;87.10;;;;;;4998038;28;20031;-93
2020/12/29 03:02:49;;;;;;;7.18;2.90;;;3.10;87.20;;;;;;4991467;28;20038;-93
2020/12/29 03:05:14;;;;;;;8.93;2.83;;;3.20;87.20;;;;;;4974920;28;20031;-93
2020/12/29 03:07:40;;;;;;;5.75;2.50;;;3.20;87.20;;;;;;5001656;28;20034;-93
2020/12/29 03:10:08;;;;;;;6.38;2.60;;;3.30;87.10;;;;;;4974150;28;20165;-94
2020/12/29 03:12:38;;;;;;;3.55;1.98;;;3.30;87.00;;;;;;4979153;28;20474;-93
2020/12/29 03:15:04;;;;;;;6.43;2.65;;;3.30;87.00;;;;;;4979011;28;20023;-93
2020/12/29 03:17:30;;;;;;;5.10;2.25;;;3.40;86.90;;;;;;4978834;28;20041;-95
2020/12/29 03:19:56;;;;;;;4.90;2.45;;;3.40;87.10;;;;;;4986614;28;20027;-95
2020/12/29 03:22:21;;;;;;;4.85;2.33;;;3.40;87.00;;;;;;4993515;28;20126;-92
2020/12/29 03:24:47;;;;;;;3.63;1.77;;;3.50;86.80;;;;;;4960881;28;20019;-91
2020/12/29 03:27:13;;;;;;;5.25;2.33;;;3.50;86.90;;;;;;4961119;28;20039;-91
2020/12/29 03:29:38;;;;;;;4.40;1.77;;;3.50;87.00;;;;;;4975930;28;20122;-91
2020/12/29 03:32:04;;;;;;;5.75;2.53;;;3.60;87.10;;;;;;4976692;28;20019;-91
2020/12/29 03:34:37;;;;;;;5.53;1.83;;;3.50;86.90;;;;;;4982980;28;20065;-91
2020/12/29 03:37:06;;;;;;;4.85;2.45;;;3.60;87.00;;;;;;4976890;28;20039;-91
2020/12/29 03:39:32;;;;;;;2.17;1.58;;;3.60;87.10;;;;;;5002897;28;20033;-90
2020/12/29 03:41:58;;;;;;;3.30;1.83;;;3.70;87.10;;;;;;4981817;28;20027;-93
2020/12/29 03:44:23;;;;;;;2.08;1.13;;;3.70;87.10;;;;;;4979035;28;20042;-93
2020/12/29 03:46:49;;;;;;;2.65;1.80;;;3.80;87.10;;;;;;4995428;28;20027;-91
2020/12/29 03:49:15;;;;;;;2.88;1.60;;;3.80;87.00;;;;;;4975602;28;20035;-92
2020/12/29 03:51:41;;;;;;;4.88;2.00;;;3.90;87.00;;;;;;4960256;28;20027;-91
2020/12/29 03:54:06;;;;;;;5.40;2.00;;;3.80;87.00;;;;;;4960263;28;20037;-91
2020/12/29 03:56:32;;;;;;;3.60;1.73;;;3.80;87.00;;;;;;4975703;28;20041;-91
2020/12/29 03:58:58;;;;;;;4.03;1.75;;;3.90;86.90;;;;;;4975433;28;20109;-91
2020/12/29 04:01:23;;;;;;;3.20;1.60;;;3.80;86.80;;;;;;4975564;28;20166;-92
2020/12/29 04:03:49;;;;;;;2.63;1.25;;;3.90;87.50;;;;;;4975715;28;20529;-91
2020/12/29 04:06:15;;;;;;;4.45;1.80;;;3.90;86.90;;;;;;4975106;28;20035;-92
2020/12/29 04:08:40;;;;;;;2.47;1.60;;;3.90;87.60;;;;;;4975358;28;20483;-92
2020/12/29 04:11:07;;;;;;;3.97;1.65;;;3.90;87.00;;;;;;4977501;28;20169;-92
2020/12/29 04:13:33;;;;;;;4.43;1.95;;;4.00;87.10;;;;;;4977268;28;20443;-91
2020/12/29 04:15:59;;;;;;;2.90;1.58;;;4.00;87.10;;;;;;4996897;28;20054;-91
2020/12/29 04:18:25;;;;;;;3.50;1.55;;;4.00;87.00;;;;;;4978609;28;20042;-93
2020/12/29 04:20:50;;;;;;;4.35;1.60;;;4.10;87.10;;;;;;4982221;28;20019;-92
2020/12/29 04:23:16;;;;;;;2.33;1.42;;;4.10;87.10;;;;;;4995559;28;20055;-89
2020/12/29 04:25:41;;;;;;;1.30;1.20;;;4.10;87.10;;;;;;4996084;28;20134;-91
2020/12/29 04:28:09;;;;;;;3.88;1.50;;;4.20;87.40;;;;;;4974694;28;20026;-91
2020/12/29 04:30:34;;;;;;;3.30;1.13;;;4.20;87.30;;;;;;4963857;28;20483;-91
2020/12/29 04:33:00;;;;;;;2.47;1.60;;;4.30;87.30;;;;;;4997280;28;20026;-91
2020/12/29 04:35:26;;;;;;;2.90;1.58;;;4.30;87.40;;;;;;4999941;28;20383;-92
2020/12/29 04:37:51;;;;;;;1.20;1.10;;;4.40;87.30;;;;;;5000820;28;20062;-91
2020/12/29 04:40:17;;;;;;;3.15;1.50;;;4.40;87.40;;;;;;4990864;28;20034;-92
2020/12/29 04:42:43;;;;;;;2.97;1.17;;;4.50;87.40;;;;;;4960267;28;20034;-90
2020/12/29 04:45:09;;;;;;;2.55;1.45;;;4.50;87.20;;;;;;4977600;28;20476;-89
2020/12/29 04:47:35;;;;;;;1.65;0.98;;;4.50;87.00;;;;;;4959852;28;20031;-90
2020/12/29 04:50:02;;;;;;;1.00;1.00;;;4.50;87.00;;;;;;4976751;28;20021;-90
2020/12/29 04:52:29;;;;;;;2.78;1.13;;;4.50;86.90;;;;;;4979176;28;20031;-90
2020/12/29 04:54:56;;;;;;;1.48;0.90;;;4.50;87.00;;;;;;4976912;28;20019;-89
2020/12/29 04:57:25;;;;;;;4.47;1.40;;;4.50;87.80;;;;;;4975642;28;20063;-89
2020/12/29 04:59:54;;;;;;;2.42;1.27;;;4.60;87.00;;;;;;4978344;28;20022;-90
2020/12/29 05:02:20;;;;;;;1.17;0.90;;;4.60;86.80;;;;;;4998605;28;20050;-90
2020/12/29 05:04:45;;;;;;;1.30;1.20;;;4.50;86.50;;;;;;4975273;28;20019;-90
2020/12/29 05:07:11;;;;;;;1.25;1.00;;;4.60;86.90;;;;;;4991339;28;20082;-90
2020/12/29 05:09:37;;;;;;;2.72;1.17;;;4.60;87.00;;;;;;4977046;28;20126;-90
2020/12/29 05:12:02;;;;;;;2.28;1.27;;;4.60;87.00;;;;;;4959028;28;20038;-90
2020/12/29 05:14:28;;;;;;;1.40;1.20;;;4.60;86.70;;;;;;4972278;28;20122;-90
2020/12/29 05:16:55;;;;;;;1.83;1.15;;;4.60;86.90;;;;;;4976067;28;20023;-91
2020/12/29 05:19:22;;;;;;;6.47;1.50;;;4.60;86.70;;;;;;4975087;28;20023;-90
2020/12/29 05:21:48;;;;;;;2.55;1.13;;;4.60;86.50;;;;;;4959054;28;20043;-90
2020/12/29 05:24:14;;;;;;;2.00;1.10;;;4.50;86.40;;;;;;4974581;28;20027;-89
2020/12/29 05:26:41;;;;;;;1.52;1.10;;;4.50;86.20;;;;;;4958526;28;20256;-90
2020/12/29 05:29:11;;;;;;;2.65;1.38;;;4.40;86.80;;;;;;4974452;28;20022;-90
2020/12/29 05:31:37;;;;;;;2.15;1.52;;;4.40;86.40;;;;;;4954929;28;20379;-90
2020/12/29 05:34:04;;;;;;;2.28;1.23;;;4.40;86.50;;;;;;4945839;28;20027;-90
2020/12/29 05:36:37;;;;;;;4.63;1.58;;;4.50;86.70;;;;;;4974038;28;20034;-89
2020/12/29 05:39:09;;;;;;;2.45;1.30;;;4.50;86.50;;;;;;4975940;28;20520;-90
2020/12/29 05:41:46;;;;;;;2.33;1.15;;;4.40;86.30;;;;;;4974280;28;20025;-90
2020/12/29 05:44:23;;;;;;;2.90;1.30;;;4.40;86.40;;;;;;4974357;28;20117;-89
2020/12/29 05:46:49;;;;;;;2.92;1.45;;;4.40;86.40;;;;;;4971430;28;20106;-90
2020/12/29 05:49:18;;;;;;;1.55;1.08;;;4.40;86.30;;;;;;4974400;28;20114;-91
2020/12/29 05:51:47;;;;;;;1.77;1.27;;;4.40;87.00;;;;;;4981971;28;20054;-90
2020/12/29 05:54:14;;;;;;;3.55;1.65;;;4.40;86.40;;;;;;4996457;28;20054;-92
2020/12/29 05:56:41;;;;;;;4.38;1.50;;;4.40;86.50;;;;;;4974103;28;20461;-92
2020/12/29 05:59:07;;;;;;;1.55;1.02;;;4.40;87.20;;;;;;4983123;28;20034;-91
2020/12/29 06:01:51;;;;;;;1.15;1.00;;;4.40;86.60;;;;;;4958526;28;20019;-91
2020/12/29 06:04:19;;;;;;;2.13;1.25;;;4.40;86.90;;;;;;4992091;28;20026;-92
2020/12/29 06:06:47;;;;;;;1.05;1.00;;;4.50;87.20;;;;;;4958328;28;20031;-92
2020/12/29 06:09:18;;;;;;;2.65;1.40;;;4.60;87.20;;;;;;4974446;28;20027;-92
2020/12/29 06:11:47;;;;;;;1.20;1.10;;;4.60;87.10;;;;;;4974193;28;20029;-91
2020/12/29 06:14:21;;;;;;;1.42;1.05;;;4.70;87.20;;;;;;4989950;28;20090;-91
2020/12/29 06:16:47;;;;;;;;;;;4.70;86.80;;;;;;4973506;28;20045;-88
2020/12/29 06:19:46;;;;;;;1.35;1.10;;;4.70;86.70;;;;;;4992185;28;19957;-87
2020/12/29 06:22:12;;;;;;;1.27;1.13;;;4.70;86.70;;;;;;4972579;28;20129;-88
2020/12/29 06:24:48;;;;;;;1.73;1.20;;;4.70;86.70;;;;;;4972692;28;20027;-88
2020/12/29 06:27:14;;;;;;;2.42;1.20;;;4.70;86.60;;;;;;4997871;28;20118;-86
2020/12/29 06:29:44;;;;;;;3.42;1.30;;;4.70;86.60;;;;;;4994106;28;20058;-92
2020/12/29 06:32:19;;;;;;;2.22;1.10;;;4.70;86.70;;;;;;4974050;28;20066;-92
2020/12/29 06:34:45;;;;;;;2.22;1.10;;;4.70;86.70;;;;;;4973914;28;20031;-91
2020/12/29 06:37:26;;;;;;;1.75;1.13;;;4.70;87.20;;;;;;4958446;28;20047;-95
2020/12/29 06:40:12;;;;;;;2.22;1.30;;;4.80;86.90;;;;;;4974462;28;20114;-92
2020/12/29 06:42:42;;;;;;;2.13;1.00;;;4.80;86.90;;;;;;4973955;28;20058;-92
2020/12/29 06:45:10;;;;;;;1.23;0.95;;;4.80;86.80;;;;;;4977314;28;20038;-88
2020/12/29 06:47:45;;;;;;;2.40;1.20;;;4.90;87.10;;;;;;4988693;28;20031;-89
2020/12/29 06:50:31;;;;;;;2.63;1.50;;;4.90;86.90;;;;;;4972667;28;20041;-87
2020/12/29 06:53:04;;;;;;;2.40;1.05;;;4.90;86.40;;;;;;4972810;28;20093;-88
2020/12/29 06:55:38;;;;;;;4.13;1.27;;;4.80;86.20;;;;;;4974213;28;20486;-86
2020/12/29 06:58:07;;;;;;;2.45;1.25;;;4.80;86.20;;;;;;4972511;28;20043;-87
2020/12/29 07:00:36;;;;;;;1.67;1.08;;;4.70;86.30;;;;;;4992271;28;20431;-87
2020/12/29 07:03:03;;;;;;;1.80;1.08;;;4.70;86.40;;;;;;4972410;28;20054;-85
2020/12/29 07:05:30;;;;;;;2.40;1.17;;;4.70;86.40;;;;;;4978321;28;20031;-87
2020/12/29 07:08:03;;;;;;;2.53;1.00;;;4.70;86.60;;;;;;4991038;28;20530;-86
2020/12/29 07:10:35;;;;;;;2.20;1.05;;;4.80;86.60;;;;;;4974492;28;20471;-91
2020/12/29 07:13:07;;;;;;;2.20;1.15;;;4.80;86.60;;;;;;4973589;28;20023;-85
2020/12/29 07:15:49;;;;;;;1.05;0.80;;;4.80;86.60;;;;;;4990511;28;20018;-88
2020/12/29 07:18:33;;;;;;;0.80;0.80;;;4.80;87.00;;;;;;4972126;28;20043;-85
2020/12/29 07:20:59;;;;;;;1.17;0.85;;;4.70;86.30;;;;;;4971817;28;20109;-87
2020/12/29 07:23:29;;;;;;;2.13;1.10;;;4.70;86.50;;;;;;4971370;28;20142;-85
2020/12/29 07:25:58;;;;;;;2.25;0.98;;;4.80;86.60;;;;;;4990923;28;20031;-84
2020/12/29 07:28:26;;;;;;;1.42;1.17;;;4.80;86.80;;;;;;4972242;28;20019;-85
2020/12/29 07:30:52;;;;;;;0.70;0.70;;;4.80;86.90;;;;;;4970406;28;20105;-85
2020/12/29 07:33:25;;;;;;;4.32;1.10;;;4.90;86.80;;;;;;4972497;28;20023;-87
2020/12/29 07:35:51;;;;;;;1.70;0.52;;;4.90;86.80;;;;;;4971318;28;20062;-87
2020/12/29 07:38:22;;;;;;;0.88;0.80;;;5.00;86.90;;;;;;4972933;28;20506;-88
2020/12/29 07:40:48;;;;;;;3.05;1.20;;;5.00;86.80;;;;;;4990522;28;20034;-89
2020/12/29 07:43:14;;;;;;;2.70;1.02;;;5.00;86.80;;;;;;4957348;28;20035;-89
2020/12/29 07:45:39;;;;;;;1.08;0.98;;;5.00;86.80;;;;;;4973087;28;20094;-91
2020/12/29 07:48:07;;;;;;;3.38;1.13;;;5.10;86.90;;;;;;4992725;28;20376;-88
2020/12/29 07:50:34;;;;;;;2.75;0.77;;;5.10;86.90;;;;;;4972067;28;20457;-88
2020/12/29 07:53:08;;;;;;;0.50;0.50;;;5.10;86.90;;;;;;4991680;28;20031;-87
2020/12/29 07:55:34;;;;;;;2.65;1.10;;;5.20;86.90;;;;;;4983834;28;20023;-88
2020/12/29 07:58:03;;;;;;;3.28;1.40;;;5.20;86.80;;;;;;4960951;28;20046;-87
2020/12/29 08:00:29;;;;;;;2.65;1.25;;;5.20;86.60;;;;;;4989780;28;20027;-90
2020/12/29 08:02:55;;;;;;;1.45;1.20;;;5.30;86.60;;;;;;4977259;28;20069;-88
2020/12/29 08:05:22;;;;;;;2.28;1.17;;;5.30;86.60;;;;;;4980165;28;20097;-87
2020/12/29 08:07:55;;;;;;;1.10;0.80;;;5.30;86.70;;;;;;4986190;28;20490;-87
2020/12/29 08:10:41;;;;;;;3.58;1.52;;;5.30;86.60;;;;;;4988720;28;20034;-88
2020/12/29 08:13:09;;;;;;;1.90;0.93;;;5.40;86.40;;;;;;4975606;28;20550;-88
2020/12/29 08:15:44;;;;;;;2.20;1.27;;;5.30;86.60;;;;;;4999112;28;20144;-88
2020/12/29 08:18:09;;;;;;;;;;;5.40;86.60;;;;;;4992193;28;20034;-88
2020/12/29 08:20:54;;;;;;;2.13;1.15;;;5.50;86.80;;;;;;4991910;28;20289;-89
2020/12/29 08:23:21;;;;;;;2.33;1.10;;;5.50;86.60;;;;;;4976885;28;20047;-89
2020/12/29 08:25:52;;;;;;;0.82;0.82;;;5.50;86.60;;;;;;4959544;28;20169;-88
2020/12/29 08:28:18;;;;;;;1.52;0.80;;;5.60;86.60;;;;;;4981991;28;20541;-87
2020/12/29 08:30:44;;;;;;;2.05;0.77;;;5.70;86.80;;;;;;4976994;28;20420;-87
2020/12/29 08:33:14;;;;;;;2.95;1.13;;;5.80;86.90;;;;;;4975619;28;20053;-91
2020/12/29 08:35:44;;;;;;;0.80;0.80;;;5.80;86.40;;;;;;4990677;28;20028;-88
2020/12/29 08:38:32;;;;;;;2.97;1.30;;;5.90;86.30;;;;;;4993933;28;20069;-87
2020/12/29 08:41:12;;;;;;;1.20;0.90;;;5.90;85.90;;;;;;4991597;28;20062;-86
2020/12/29 08:43:44;;;;;;;1.77;1.02;;;5.90;86.00;;;;;;4991798;28;20053;-87
2020/12/29 08:46:12;;;;;;;0.82;0.82;;;5.90;85.80;;;;;;4991681;28;20470;-88
2020/12/29 08:48:40;;;;;;;1.58;0.95;;;5.80;85.30;;;;;;4975107;28;20502;-88
2020/12/29 08:51:20;;;;;;;0.77;0.75;;;5.80;85.20;;;;;;4976569;28;20037;-88
2020/12/29 08:53:47;;;;;;;2.28;1.23;;;5.80;85.60;;;;;;4979211;28;20483;-88
2020/12/29 08:56:26;;;;;;;1.23;0.63;;;5.90;85.60;;;;;;4975719;28;20116;-88
2020/12/29 08:58:53;;;;;;;0.50;0.50;;;6.00;86.20;;;;;;4990846;28;20027;-88
2020/12/29 09:01:33;;;;;;;3.13;1.30;;;6.10;86.20;;;;;;4975214;28;20027;-88
2020/12/29 09:04:23;;;;;;;1.33;0.88;;;6.20;85.50;;;;;;4980759;28;20050;-87
2020/12/29 09:06:56;;;;;;;2.30;0.80;;;6.20;85.40;;;;;;4975055;28;20114;-87
2020/12/29 09:09:22;;;;;;;1.75;1.00;;;6.20;85.30;;;;;;4973353;28;20058;-87
2020/12/29 09:11:48;;;;;;;0.50;0.50;;;6.20;85.50;;;;;;4974749;28;20472;-86
2020/12/29 09:14:13;;;;;;;4.18;1.38;;;6.30;86.00;;;;;;4973502;28;20053;-88
2020/12/29 09:16:39;;;;;;;6.07;2.08;;;6.40;85.80;;;;;;4961172;28;21198;-89
2020/12/29 09:19:14;;;;;;;2.63;1.58;;;6.50;85.70;;;;;;4945628;28;20506;-89
2020/12/29 09:21:39;;;;;;;;;;;6.50;85.40;;;;;;4974809;28;20038;-88
2020/12/29 09:24:05;;;;;;;3.30;1.38;;;6.50;85.30;;;;;;4974283;28;19910;-87
2020/12/29 09:26:31;;;;;;;4.38;1.25;;;6.60;85.80;;;;;;4976825;28;20042;-87
2020/12/29 09:28:57;;;;;;;2.58;1.02;;;6.70;85.30;;;;;;4980591;28;20030;-88
2020/12/29 09:31:28;;;;;;;2.05;1.33;;;6.70;85.50;;;;;;4996409;28;20361;-88
2020/12/29 09:33:54;;;;;;;0.55;0.55;;;6.80;85.30;;;;;;4973928;28;20018;-86
2020/12/29 09:36:24;;;;;;;5.15;1.90;;;6.70;85.10;;;;;;4974177;28;20491;-88
2020/12/29 09:38:55;;;;;;;6.72;2.33;;;6.60;83.90;;;;;;5000751;28;20074;-87
2020/12/29 09:41:21;;;;;;;3.33;1.60;;;6.50;83.60;;;;;;4994986;28;20031;-86
2020/12/29 09:43:50;;;;;;;4.43;2.03;;;6.20;82.80;;;;;;4976359;28;20023;-86
2020/12/29 09:46:16;;;;;;;5.32;2.08;;;5.80;80.90;;;;;;4977441;28;20087;-86
2020/12/29 09:48:42;;;;;;;2.30;1.27;;;5.40;80.70;;;;;;4973943;28;20485;-87
2020/12/29 09:51:11;;;;;;;5.38;2.08;;;4.90;81.10;;;;;;4975130;28;20097;-86
2020/12/29 09:53:36;;;;;;;3.55;1.75;;;4.70;81.80;;;;;;4972880;28;20139;-88
2020/12/29 09:56:02;;;;;;;1.75;1.33;;;4.50;81.80;;;;;;4974097;28;20109;-88
2020/12/29 09:58:27;;;;;;;0.75;0.70;;;4.30;82.20;;;;;;4979966;28;20519;-86
2020/12/29 10:00:53;;;;;;;1.08;1.00;;;4.20;82.80;;;;;;4959263;28;20027;-89
2020/12/29 10:03:19;;;;;;;1.17;0.90;;;4.10;83.20;;;;;;4973472;28;20582;-88
2020/12/29 10:05:45;;;;;;;1.55;1.10;;;4.20;83.90;;;;;;4957664;28;20408;-87
2020/12/29 10:08:11;;;;;;;1.30;1.00;;;4.20;84.10;;;;;;4997636;28;20050;-87
2020/12/29 10:10:37;;;;;;;0.70;0.70;;;4.20;84.40;;;;;;4973288;28;20459;-85
2020/12/29 10:13:03;;;;;;;2.03;1.27;;;4.30;84.80;;;;;;4989224;28;20049;-83
2020/12/29 10:15:29;;;;;;;1.40;0.70;;;4.40;85.20;;;;;;4973104;28;20019;-83
2020/12/29 10:17:54;;;;;;;1.48;1.08;;;4.40;84.00;;;;;;4995600;28;20162;-83
2020/12/29 10:20:21;;;;;;;2.00;1.00;;;4.30;83.80;;;;;;4956904;28;20070;-84
2020/12/29 10:22:47;;;;;;;1.55;1.00;;;4.40;84.40;;;;;;4972390;28;20077;-83
2020/12/29 10:25:15;;;;;;;1.35;1.10;;;4.30;84.30;;;;;;4988759;28;20014;-84
2020/12/29 10:27:45;;;;;;;1.52;0.80;;;4.30;84.30;;;;;;4993552;28;20042;-84
2020/12/29 10:30:11;;;;;;;2.35;1.48;;;4.30;84.40;;;;;;4973051;28;20101;-86
2020/12/29 10:32:37;;;;;;;1.38;0.80;;;4.40;85.10;;;;;;4973040;28;20483;-86
2020/12/29 10:35:04;;;;;;;0.80;0.80;;;4.40;85.40;;;;;;4972676;28;20105;-86
2020/12/29 10:37:30;;;;;;;0.75;0.75;;;4.50;84.80;;;;;;4972494;28;20943;-85
2020/12/29 10:39:55;;;;;;;1.70;1.13;;;4.60;85.90;;;;;;4994954;28;20027;-87
2020/12/29 10:42:21;;;;;;;3.17;1.30;;;4.80;87.00;;;;;;4943410;28;20031;-86
2020/12/29 10:44:47;;;;;;;3.30;1.25;;;5.00;86.60;;;;;;4979663;28;20467;-86
2020/12/29 10:47:12;;;;;;;1.30;1.08;;;5.20;85.70;;;;;;4988746;28;20395;-84
2020/12/29 10:49:38;;;;;;;2.28;1.55;;;5.30;85.90;;;;;;4956643;28;20110;-86
2020/12/29 10:52:04;;;;;;;1.33;1.13;;;5.40;86.30;;;;;;4956503;28;20034;-86
2020/12/29 10:54:29;;;;;;;1.27;1.13;;;5.50;85.60;;;;;;4973737;28;20256;-85
2020/12/29 10:56:55;;;;;;;2.05;1.13;;;5.50;84.80;;;;;;4972542;28;20483;-85
2020/12/29 10:59:20;;;;;;;3.97;1.77;;;5.40;84.40;;;;;;4973608;28;20045;-84
2020/12/29 11:01:46;;;;;;;1.63;1.15;;;5.30;84.20;;;;;;4974421;28;20019;-85
2020/12/29 11:04:11;;;;;;;2.10;1.30;;;5.30;85.40;;;;;;4990280;28;20403;-85
2020/12/29 11:06:37;;;;;;;7.47;2.72;;;5.30;85.00;;;;;;4980162;28;20031;-86
2020/12/29 11:09:04;;;;;;;0.90;0.90;;;5.30;85.50;;;;;;4972149;28;20027;-86
2020/12/29 11:11:29;;;;;;;2.75;1.30;;;5.40;85.80;;;;;;4993341;28;20031;-86
2020/12/29 11:13:55;;;;;;;4.13;1.67;;;5.50;85.60;;;;;;4975049;28;20023;-86
2020/12/29 11:16:21;;;;;;;6.30;2.40;;;5.50;85.50;;;;;;4970522;28;20160;-87
2020/12/29 11:18:50;;;;;;;6.80;2.78;;;5.50;85.60;;;;;;4974029;28;20038;-87
2020/12/29 11:21:17;;;;;;;5.10;2.55;;;5.50;85.80;;;;;;4991173;28;20027;-87
2020/12/29 11:23:44;;;;;;;3.40;1.90;;;5.60;86.00;;;;;;4973994;28;20089;-87
2020/12/29 11:26:13;;;;;;;5.38;2.65;;;5.60;85.70;;;;;;4972131;28;20019;-87
2020/12/29 11:28:39;;;;;;;5.38;2.17;;;5.60;86.10;;;;;;4989455;28;20026;-87
2020/12/29 11:31:04;;;;;;;4.28;1.98;;;5.70;86.00;;;;;;4975386;28;20038;-87
2020/12/29 11:33:30;;;;;;;4.70;1.35;;;5.70;85.50;;;;;;4980108;28;20043;-87
2020/12/29 11:35:56;;;;;;;4.18;1.90;;;5.60;85.50;;;;;;4993975;28;20026;-87
2020/12/29 11:38:22;;;;;;;1.77;1.10;;;5.60;85.20;;;;;;4975942;28;20402;-87
2020/12/29 11:40:49;;;;;;;3.63;1.90;;;5.60;85.70;;;;;;4975846;28;20085;-88
2020/12/29 11:43:15;;;;;;;3.17;1.77;;;5.50;86.00;;;;;;4993731;28;20027;-86
2020/12/29 11:45:42;;;;;;;1.25;1.00;;;5.60;85.90;;;;;;4997422;28;20030;-87
2020/12/29 11:48:07;;;;;;;4.05;1.90;;;5.70;86.30;;;;;;4976336;28;20032;-92
2020/12/29 11:50:33;;;;;;;2.15;1.33;;;5.80;86.70;;;;;;4976033;28;20023;-89
2020/12/29 11:52:59;;;;;;;5.13;1.75;;;5.90;86.90;;;;;;4988436;28;20391;-88
2020/12/29 11:55:24;;;;;;;5.22;2.13;;;6.00;87.20;;;;;;4975889;28;20101;-87
2020/12/29 11:57:50;;;;;;;3.90;2.03;;;6.20;87.40;;;;;;4993299;28;20406;-87
2020/12/29 12:00:17;;;;;;;5.60;2.03;;;6.30;87.10;;;;;;4978250;28;20067;-88
2020/12/29 12:02:42;;;;;;;5.40;2.20;;;6.30;86.60;;;;;;4976752;28;20536;-89
2020/12/29 12:05:08;;;;;;;2.50;1.13;;;6.40;86.70;;;;;;4959675;28;20383;-88
2020/12/29 12:07:33;;;;;;;3.72;1.65;;;6.40;85.90;;;;;;4980872;28;20138;-88
2020/12/29 12:10:00;;;;;;;3.28;1.80;;;6.40;85.80;;;;;;4976011;28;20026;-87
2020/12/29 12:12:26;;;;;;;4.03;1.45;;;6.40;86.70;;;;;;4981423;28;20074;-88
2020/12/29 12:14:52;;;;;;;4.80;1.92;;;6.50;86.60;;;;;;4975977;28;20077;-87
2020/12/29 12:17:17;;;;;;;0.73;0.63;;;6.40;85.90;;;;;;4979011;28;20027;-82
2020/12/29 12:19:43;;;;;;;4.10;1.92;;;6.30;86.30;;;;;;4976259;28;20038;-85
2020/12/29 12:22:08;;;;;;;4.50;2.17;;;6.30;86.50;;;;;;4943571;28;20043;-86
2020/12/29 12:24:34;;;;;;;3.85;2.17;;;6.40;86.60;;;;;;4976907;28;20054;-87
2020/12/29 12:26:59;;;;;;;2.60;1.38;;;6.50;86.90;;;;;;4974534;28;20595;-86
2020/12/29 12:29:25;;;;;;;2.67;1.50;;;6.50;86.60;;;;;;4996855;28;20027;-87
2020/12/29 12:31:51;;;;;;;5.13;1.88;;;6.60;87.60;;;;;;4958981;28;20506;-87
2020/12/29 12:34:16;;;;;;;1.23;0.90;;;6.90;88.60;;;;;;4979380;28;20502;-87
2020/12/29 12:36:43;;;;;;;2.45;1.30;;;7.10;88.10;;;;;;4976699;28;20085;-84
2020/12/29 12:39:09;;;;;;;1.40;1.15;;;7.10;86.50;;;;;;4990592;28;20035;-85
2020/12/29 12:41:34;;;;;;;4.18;1.40;;;7.10;86.10;;;;;;4994978;28;20430;-87
2020/12/29 12:44:00;;;;;;;3.08;1.40;;;7.00;86.20;;;;;;4958875;28;20037;-88
2020/12/29 12:46:25;;;;;;;3.50;1.88;;;7.00;86.40;;;;;;4991066;28;20485;-86
2020/12/29 12:48:51;;;;;;;1.30;1.20;;;6.90;86.00;;;;;;4958182;28;20098;-88
2020/12/29 12:51:17;;;;;;;1.10;1.00;;;6.80;85.20;;;;;;4981550;28;20027;-86
2020/12/29 12:53:44;;;;;;;3.45;1.40;;;6.70;86.20;;;;;;4959692;28;20073;-84
2020/12/29 12:56:13;;;;;;;3.65;1.30;;;6.80;86.60;;;;;;4974430;28;20027;-87
2020/12/29 12:58:39;;;;;;;7.80;2.35;;;6.90;86.70;;;;;;4992540;28;20494;-85
2020/12/29 13:01:05;;;;;;;5.75;2.25;;;6.90;86.20;;;;;;4974258;28;20031;-84